Time;durP1;ratioP1;P1;durP2;ratioP2;P2;SDS_P1;SDS_P2;PMS_P1;PMS_P2;Temp;Humidity;BMP_temperature;BMP_pressure;BME280_temperature;BME280_humidity;BME280_pressure;Samples;Min_cycle;Max_cycle;Signal;HPM_P1;HPM_P2
2023/01/20 00:00:21;;;;;;;10.27;6.90;;;;;;;;;;10431812;28;21434;-76
2023/01/20 00:05:22;;;;;;;13.83;5.97;;;;;;;;;;10433282;28;21005;-74
2023/01/20 00:10:23;;;;;;;12.30;6.45;;;;;;;;;;10433090;28;20214;-75
2023/01/20 00:15:25;;;;;;;9.60;5.68;;;;;;;;;;10430910;28;20221;-74
2023/01/20 00:20:26;;;;;;;11.32;6.38;;;;;;;;;;10430159;28;20659;-74
2023/01/20 00:25:27;;;;;;;13.03;5.87;;;;;;;;;;10426962;28;20253;-75
2023/01/20 00:30:28;;;;;;;15.63;6.23;;;;;;;;;;10427745;28;20817;-74
2023/01/20 00:35:29;;;;;;;15.80;6.37;;;;;;;;;;10426994;28;20234;-74
2023/01/20 00:40:30;;;;;;;10.57;5.47;;;;;;;;;;10395158;28;20670;-74
2023/01/20 00:45:31;;;;;;;12.73;6.40;;;;;;;;;;10426244;28;20222;-75
2023/01/20 00:50:33;;;;;;;9.20;5.50;;;;;;;;;;10429835;28;20225;-75
2023/01/20 00:55:34;;;;;;;14.90;5.95;;;;;;;;;;10408164;28;20364;-75
2023/01/20 01:00:35;;;;;;;13.20;6.20;;;;;;;;;;10421685;28;21084;-74
2023/01/20 01:05:36;;;;;;;12.13;6.07;;;;;;;;;;10427932;28;20805;-74
2023/01/20 01:10:37;;;;;;;10.00;5.27;;;;;;;;;;10426638;28;20250;-75
2023/01/20 01:15:38;;;;;;;16.23;7.37;;;;;;;;;;10409618;28;20927;-74
2023/01/20 01:20:40;;;;;;;10.17;5.77;;;;;;;;;;10421222;28;20571;-75
2023/01/20 01:25:41;;;;;;;12.70;6.03;;;;;;;;;;10426375;28;20206;-74
2023/01/20 01:30:43;;;;;;;14.85;6.95;;;;;;;;;;10409483;28;20376;-74
2023/01/20 01:35:53;;;;;;;12.00;5.72;;;;;;;;;;10427167;28;20210;-74
2023/01/20 01:40:55;;;;;;;13.93;6.78;;;;;;;;;;10421477;28;20207;-74
2023/01/20 01:45:56;;;;;;;10.82;4.95;;;;;;;;;;10422480;28;20253;-74
2023/01/20 01:50:57;;;;;;;7.27;4.93;;;;;;;;;;10420210;28;20712;-74
2023/01/20 01:56:00;;;;;;;11.48;5.50;;;;;;;;;;10412721;28;20298;-74
2023/01/20 02:01:02;;;;;;;14.30;6.17;;;;;;;;;;10414233;28;20305;-76
2023/01/20 02:06:03;;;;;;;9.70;5.77;;;;;;;;;;10421135;28;20223;-75
2023/01/20 02:11:04;;;;;;;17.67;6.63;;;;;;;;;;10418057;28;20207;-74
2023/01/20 02:16:14;;;;;;;8.27;5.23;;;;;;;;;;10419362;28;20206;-73
2023/01/20 02:21:15;;;;;;;11.40;5.53;;;;;;;;;;10420738;28;20210;-74
2023/01/20 02:26:28;;;;;;;10.67;6.17;;;;;;;;;;10414394;28;20206;-74
2023/01/20 02:31:29;;;;;;;16.33;6.37;;;;;;;;;;10422433;28;20229;-74
2023/01/20 02:36:40;;;;;;;10.97;5.43;;;;;;;;;;10417373;28;21888;-75
2023/01/20 02:41:43;;;;;;;11.47;5.73;;;;;;;;;;10409047;28;20235;-74
2023/01/20 02:46:51;;;;;;;15.70;6.13;;;;;;;;;;10403111;28;20819;-74
2023/01/20 02:51:56;;;;;;;9.87;5.03;;;;;;;;;;10416026;28;20991;-75
2023/01/20 02:56:59;;;;;;;11.57;5.23;;;;;;;;;;10396104;28;20211;-74
2023/01/20 03:02:03;;;;;;;11.93;5.17;;;;;;;;;;10418175;28;20724;-74
2023/01/20 03:07:05;;;;;;;9.43;5.43;;;;;;;;;;10417515;28;20211;-71
2023/01/20 03:12:24;;;;;;;13.67;5.67;;;;;;;;;;10418779;28;20221;-73
2023/01/20 03:17:25;;;;;;;13.83;5.30;;;;;;;;;;10423501;28;20599;-74
2023/01/20 03:22:27;;;;;;;7.23;4.60;;;;;;;;;;10416286;28;20305;-73
2023/01/20 03:27:28;;;;;;;9.00;4.67;;;;;;;;;;10424696;28;20218;-74
2023/01/20 03:32:31;;;;;;;9.67;4.97;;;;;;;;;;10425015;28;20210;-72
2023/01/20 03:37:32;;;;;;;10.17;4.77;;;;;;;;;;10423258;28;20207;-73
2023/01/20 03:42:39;;;;;;;11.33;5.03;;;;;;;;;;10404193;28;20225;-73
2023/01/20 03:47:46;;;;;;;12.27;5.97;;;;;;;;;;10421354;28;20228;-73
2023/01/20 03:53:03;;;;;;;10.70;5.73;;;;;;;;;;10420203;28;20288;-74
2023/01/20 03:58:07;;;;;;;13.27;5.60;;;;;;;;;;10421289;28;21127;-74
2023/01/20 04:03:11;;;;;;;10.43;4.97;;;;;;;;;;10423150;28;20794;-73
2023/01/20 04:08:13;;;;;;;9.90;5.93;;;;;;;;;;10439590;28;20796;-73
2023/01/20 04:13:15;;;;;;;7.20;4.30;;;;;;;;;;10420841;28;20211;-73
2023/01/20 04:18:21;;;;;;;9.63;5.73;;;;;;;;;;10427268;28;20894;-74
2023/01/20 04:23:34;;;;;;;10.90;5.77;;;;;;;;;;10425288;28;20218;-75
2023/01/20 04:28:35;;;;;;;12.07;5.50;;;;;;;;;;10420666;28;20218;-74
2023/01/20 04:33:37;;;;;;;12.40;6.03;;;;;;;;;;10430441;28;20696;-74
2023/01/20 04:38:38;;;;;;;9.80;5.67;;;;;;;;;;10430835;28;20309;-75
2023/01/20 04:43:42;;;;;;;11.23;5.43;;;;;;;;;;10393296;28;20214;-73
2023/01/20 04:48:45;;;;;;;9.97;5.67;;;;;;;;;;10444880;28;20231;-74
2023/01/20 04:53:46;;;;;;;9.80;5.83;;;;;;;;;;10426164;28;20269;-74
2023/01/20 04:58:47;;;;;;;13.27;5.20;;;;;;;;;;10414044;28;20259;-74
2023/01/20 05:03:48;;;;;;;9.30;5.60;;;;;;;;;;10399085;28;20219;-75
2023/01/20 05:08:49;;;;;;;6.23;4.60;;;;;;;;;;10426619;28;20214;-75
2023/01/20 05:13:51;;;;;;;9.13;5.70;;;;;;;;;;10392650;28;20306;-75
2023/01/20 05:18:52;;;;;;;11.90;5.50;;;;;;;;;;10426638;28;20217;-74
2023/01/20 05:23:53;;;;;;;11.10;5.50;;;;;;;;;;10421844;28;20241;-74
2023/01/20 05:28:54;;;;;;;11.77;5.43;;;;;;;;;;10425470;28;20276;-76
2023/01/20 05:33:55;;;;;;;12.73;5.57;;;;;;;;;;10427438;28;20215;-73
2023/01/20 05:38:57;;;;;;;11.33;6.10;;;;;;;;;;10412930;28;20215;-74
2023/01/20 05:43:58;;;;;;;11.83;5.40;;;;;;;;;;10426236;28;21033;-74
2023/01/20 05:48:59;;;;;;;15.93;6.07;;;;;;;;;;10426845;28;20206;-71
2023/01/20 05:54:00;;;;;;;11.67;5.03;;;;;;;;;;10404983;28;20238;-75
2023/01/20 05:59:01;;;;;;;18.00;5.30;;;;;;;;;;10404418;28;20223;-75
2023/01/20 06:04:02;;;;;;;11.07;5.63;;;;;;;;;;10407201;28;20704;-76
2023/01/20 06:09:05;;;;;;;12.87;5.23;;;;;;;;;;10424911;28;20226;-75
2023/01/20 06:14:06;;;;;;;11.07;5.50;;;;;;;;;;10422965;28;20250;-75
2023/01/20 06:19:07;;;;;;;8.97;5.50;;;;;;;;;;10420023;28;20207;-75
2023/01/20 06:24:08;;;;;;;6.63;4.60;;;;;;;;;;10424981;28;20225;-76
2023/01/20 06:29:09;;;;;;;7.83;5.37;;;;;;;;;;10405575;28;20221;-77
2023/01/20 06:34:11;;;;;;;9.37;4.63;;;;;;;;;;10404692;28;20207;-77
2023/01/20 06:39:12;;;;;;;11.63;6.10;;;;;;;;;;10419320;28;20218;-77
2023/01/20 06:44:14;;;;;;;12.63;6.13;;;;;;;;;;10399068;28;20206;-76
2023/01/20 06:49:15;;;;;;;14.73;5.97;;;;;;;;;;10417186;28;20207;-75
2023/01/20 06:54:16;;;;;;;12.03;5.87;;;;;;;;;;10410317;28;20936;-79
2023/01/20 06:59:17;;;;;;;10.13;5.87;;;;;;;;;;10417475;28;20607;-78
2023/01/20 07:04:21;;;;;;;13.90;6.67;;;;;;;;;;10385894;28;20207;-75
2023/01/20 07:09:22;;;;;;;9.83;6.07;;;;;;;;;;10413758;28;20249;-78
2023/01/20 07:14:23;;;;;;;17.30;6.30;;;;;;;;;;10380708;28;21067;-78
2023/01/20 07:19:25;;;;;;;13.43;5.60;;;;;;;;;;10419014;28;20322;-79
2023/01/20 07:24:26;;;;;;;22.77;6.37;;;;;;;;;;10382048;28;21020;-77
2023/01/20 07:29:27;;;;;;;8.37;4.43;;;;;;;;;;10421125;28;20638;-76
2023/01/20 07:34:28;;;;;;;16.53;6.17;;;;;;;;;;10413551;28;20772;-77
2023/01/20 07:39:29;;;;;;;12.37;5.83;;;;;;;;;;10415556;28;20203;-76
2023/01/20 07:44:31;;;;;;;13.93;6.30;;;;;;;;;;10418301;28;20214;-77
2023/01/20 07:49:32;;;;;;;10.17;5.27;;;;;;;;;;10417598;28;20226;-76
2023/01/20 07:54:34;;;;;;;9.20;5.03;;;;;;;;;;10430828;28;20244;-75
2023/01/20 07:59:35;;;;;;;9.53;5.67;;;;;;;;;;10419750;28;21433;-76
2023/01/20 08:04:36;;;;;;;14.93;5.73;;;;;;;;;;10424198;28;20210;-76
2023/01/20 08:09:39;;;;;;;12.63;6.50;;;;;;;;;;10416230;28;20246;-76
2023/01/20 08:14:40;;;;;;;17.93;7.63;;;;;;;;;;10420615;28;20218;-76
2023/01/20 08:19:41;;;;;;;15.97;7.03;;;;;;;;;;10427064;28;20219;-73
2023/01/20 08:24:42;;;;;;;9.80;5.93;;;;;;;;;;10423444;28;20214;-75
2023/01/20 08:29:43;;;;;;;9.13;5.53;;;;;;;;;;10411423;28;20215;-76
2023/01/20 08:34:44;;;;;;;11.77;5.87;;;;;;;;;;10403940;28;20564;-76
2023/01/20 08:39:46;;;;;;;11.47;5.53;;;;;;;;;;10425929;28;20305;-76
2023/01/20 08:44:51;;;;;;;15.63;6.27;;;;;;;;;;10400638;28;20213;-75
2023/01/20 08:49:52;;;;;;;14.63;6.10;;;;;;;;;;10431570;28;20211;-76
2023/01/20 08:54:54;;;;;;;15.77;7.27;;;;;;;;;;10399940;28;20222;-76
2023/01/20 08:59:55;;;;;;;11.60;6.28;;;;;;;;;;10420894;28;20250;-77
2023/01/20 09:04:56;;;;;;;14.13;6.03;;;;;;;;;;10426555;28;20222;-78
2023/01/20 09:09:57;;;;;;;10.95;6.03;;;;;;;;;;10423041;28;20720;-76
2023/01/20 09:14:58;;;;;;;15.27;6.25;;;;;;;;;;10418595;28;20900;-78
2023/01/20 09:19:59;;;;;;;12.07;6.07;;;;;;;;;;10401565;28;20438;-78
2023/01/20 09:25:00;;;;;;;12.15;5.97;;;;;;;;;;10428258;28;20227;-77
2023/01/20 09:30:02;;;;;;;15.47;6.87;;;;;;;;;;10424350;28;20301;-79
2023/01/20 09:35:03;;;;;;;10.18;5.75;;;;;;;;;;10403234;28;20225;-81
2023/01/20 09:45:34;;;;;;;12.32;6.10;;;;;;;;;;10419468;28;20244;-79
2023/01/20 09:56:11;;;;;;;12.77;5.70;;;;;;;;;;10417031;28;20755;-81
2023/01/20 10:01:19;;;;;;;8.15;5.38;;;;;;;;;;10416134;28;20225;-80
2023/01/20 10:06:25;;;;;;;9.55;5.70;;;;;;;;;;10409387;28;20592;-79
2023/01/20 10:11:28;;;;;;;11.60;5.63;;;;;;;;;;10419356;28;20272;-79
2023/01/20 10:16:34;;;;;;;10.68;5.50;;;;;;;;;;10383330;28;20221;-79
2023/01/20 10:21:37;;;;;;;7.25;4.85;;;;;;;;;;10436106;28;20271;-79
2023/01/20 10:26:45;;;;;;;10.93;5.85;;;;;;;;;;10420520;28;20222;-79
2023/01/20 10:31:51;;;;;;;6.53;4.32;;;;;;;;;;10424342;28;20215;-80
2023/01/20 10:36:56;;;;;;;11.43;5.45;;;;;;;;;;10423561;28;20215;-81
2023/01/20 10:42:02;;;;;;;6.75;4.68;;;;;;;;;;10407418;28;20306;-81
2023/01/20 10:47:06;;;;;;;6.25;5.43;;;;;;;;;;10408608;28;20381;-80
2023/01/20 10:52:25;;;;;;;11.07;5.80;;;;;;;;;;10387989;28;20318;-80
2023/01/20 10:57:26;;;;;;;7.35;5.05;;;;;;;;;;10402519;28;20210;-81
2023/01/20 11:02:36;;;;;;;7.60;5.13;;;;;;;;;;10425476;28;20238;-81
2023/01/20 11:07:37;;;;;;;10.77;6.07;;;;;;;;;;10433143;28;20257;-80
2023/01/20 11:12:40;;;;;;;11.23;6.25;;;;;;;;;;10442544;28;20847;-81
2023/01/20 11:17:41;;;;;;;10.90;6.13;;;;;;;;;;10407666;28;20656;-81
2023/01/20 11:22:46;;;;;;;13.65;6.18;;;;;;;;;;10426142;28;20211;-81
2023/01/20 11:27:47;;;;;;;8.50;6.22;;;;;;;;;;10430869;28;20222;-82
2023/01/20 11:33:06;;;;;;;12.27;6.03;;;;;;;;;;10405016;28;20214;-80
2023/01/20 11:38:20;;;;;;;7.90;6.25;;;;;;;;;;10416799;28;21051;-80
2023/01/20 11:43:33;;;;;;;10.40;6.38;;;;;;;;;;10419273;28;20349;-81
2023/01/20 11:48:34;;;;;;;8.35;6.50;;;;;;;;;;10440687;28;20632;-80
2023/01/20 11:53:35;;;;;;;11.13;6.30;;;;;;;;;;10439118;28;20242;-81
2023/01/20 11:58:49;;;;;;;9.35;6.35;;;;;;;;;;10448057;28;20821;-83
2023/01/20 12:03:50;;;;;;;8.63;5.45;;;;;;;;;;10456763;28;20207;-81
2023/01/20 12:09:14;;;;;;;8.52;7.15;;;;;;;;;;10477145;28;20261;-81
2023/01/20 12:14:19;;;;;;;8.07;6.53;;;;;;;;;;10427676;28;20207;-81
2023/01/20 12:19:21;;;;;;;9.90;6.55;;;;;;;;;;10439118;28;20426;-81
2023/01/20 12:25:06;;;;;;;10.20;6.88;;;;;;;;;;10437396;28;20206;-80
2023/01/20 12:30:00;;;;;;;12.18;7.43;;;;;;;;;;10425653;28;20219;-81
2023/01/20 12:35:01;;;;;;;10.98;6.65;;;;;;;;;;10432240;28;20214;-81
2023/01/20 12:40:07;;;;;;;12.35;6.93;;;;;;;;;;10440424;28;20203;-81
2023/01/20 12:45:15;;;;;;;9.80;6.78;;;;;;;;;;10436372;28;20232;-81
2023/01/20 12:50:26;;;;;;;13.38;8.50;;;;;;;;;;10411614;28;20201;-80
2023/01/20 12:55:54;;;;;;;10.15;6.90;;;;;;;;;;10426473;28;20225;-82
2023/01/20 13:01:15;;;;;;;16.17;7.18;;;;;;;;;;10400881;28;20211;-80
2023/01/20 13:06:35;;;;;;;13.68;8.50;;;;;;;;;;10410035;28;20234;-78
2023/01/20 13:11:56;;;;;;;10.50;7.95;;;;;;;;;;10415499;28;20583;-82
2023/01/20 13:17:02;;;;;;;11.38;6.97;;;;;;;;;;10411282;28;20221;-80
2023/01/20 13:22:19;;;;;;;13.45;8.38;;;;;;;;;;10418594;28;20215;-82
2023/01/20 13:27:24;;;;;;;12.57;7.40;;;;;;;;;;10421730;28;20222;-81
2023/01/20 13:32:26;;;;;;;16.75;8.15;;;;;;;;;;10428685;28;20240;-81
2023/01/20 13:37:29;;;;;;;15.43;6.90;;;;;;;;;;10421070;28;20211;-81
2023/01/20 13:42:36;;;;;;;14.98;8.75;;;;;;;;;;10426612;28;20211;-81
2023/01/20 13:47:59;;;;;;;12.25;7.47;;;;;;;;;;10408799;28;20271;-82
2023/01/20 13:53:00;;;;;;;15.13;9.40;;;;;;;;;;10429027;28;20227;-82
2023/01/20 13:58:01;;;;;;;14.70;7.47;;;;;;;;;;10426701;28;20214;-80
2023/01/20 14:03:11;;;;;;;14.05;7.65;;;;;;;;;;10390020;28;20222;-80
2023/01/20 14:08:14;;;;;;;14.13;8.43;;;;;;;;;;10422348;28;20222;-80
2023/01/20 14:13:22;;;;;;;13.40;7.38;;;;;;;;;;10430868;28;20244;-81
2023/01/20 14:18:25;;;;;;;12.43;7.32;;;;;;;;;;10433804;28;20746;-79
2023/01/20 14:23:28;;;;;;;9.77;7.32;;;;;;;;;;10415840;28;20369;-80
2023/01/20 14:28:29;;;;;;;12.38;7.38;;;;;;;;;;10423873;28;20223;-80
2023/01/20 14:33:30;;;;;;;10.40;6.35;;;;;;;;;;10412692;28;20213;-78
2023/01/20 14:38:31;;;;;;;12.23;6.60;;;;;;;;;;10427386;28;20215;-80
2023/01/20 14:43:32;;;;;;;10.38;6.57;;;;;;;;;;10436403;28;20829;-80
2023/01/20 14:48:34;;;;;;;12.85;6.82;;;;;;;;;;10444318;28;20244;-81
2023/01/20 14:53:35;;;;;;;12.65;7.07;;;;;;;;;;10424690;28;20256;-81
2023/01/20 14:58:43;;;;;;;12.35;7.05;;;;;;;;;;10430804;28;20219;-81
2023/01/20 15:03:44;;;;;;;14.98;7.25;;;;;;;;;;10405705;28;20814;-81
2023/01/20 15:08:49;;;;;;;12.60;7.82;;;;;;;;;;10411385;28;20635;-81
2023/01/20 15:13:51;;;;;;;12.68;7.43;;;;;;;;;;10409725;28;20218;-82
2023/01/20 15:19:11;;;;;;;12.20;7.03;;;;;;;;;;10424169;28;20592;-81
2023/01/20 15:24:14;;;;;;;12.90;8.25;;;;;;;;;;10421412;28;20352;-81
2023/01/20 15:29:20;;;;;;;14.43;7.38;;;;;;;;;;10395712;28;20341;-79
2023/01/20 15:34:22;;;;;;;10.88;6.95;;;;;;;;;;10424400;28;20210;-80
2023/01/20 15:39:24;;;;;;;12.50;7.20;;;;;;;;;;10391539;28;20218;-79
2023/01/20 15:44:26;;;;;;;12.05;6.97;;;;;;;;;;10427205;28;20206;-81
2023/01/20 15:49:27;;;;;;;13.23;6.05;;;;;;;;;;10425689;28;20215;-81
2023/01/20 15:54:28;;;;;;;9.10;5.97;;;;;;;;;;10419080;28;20284;-79
2023/01/20 15:59:31;;;;;;;10.80;6.72;;;;;;;;;;10408329;28;20222;-81
2023/01/20 16:04:32;;;;;;;12.55;7.20;;;;;;;;;;10426149;28;20206;-81
2023/01/20 16:09:37;;;;;;;14.20;6.75;;;;;;;;;;10435600;28;20345;-79
2023/01/20 16:14:38;;;;;;;10.80;6.78;;;;;;;;;;10433452;28;20218;-80
2023/01/20 16:19:40;;;;;;;9.65;6.25;;;;;;;;;;10430269;28;20309;-79
2023/01/20 16:24:41;;;;;;;15.57;7.40;;;;;;;;;;10430954;28;20233;-79
2023/01/20 16:29:42;;;;;;;9.68;7.07;;;;;;;;;;10431291;28;20976;-79
2023/01/20 16:34:43;;;;;;;13.23;7.72;;;;;;;;;;10432641;28;20229;-76
2023/01/20 16:39:44;;;;;;;16.05;7.78;;;;;;;;;;10418001;28;20659;-78
2023/01/20 16:44:45;;;;;;;15.32;8.23;;;;;;;;;;10414235;28;20215;-80
2023/01/20 16:49:47;;;;;;;12.90;7.22;;;;;;;;;;10433344;28;20218;-80
2023/01/20 16:54:48;;;;;;;11.40;7.38;;;;;;;;;;10417720;28;20688;-80
2023/01/20 16:59:49;;;;;;;13.25;7.53;;;;;;;;;;10422994;28;20693;-79
2023/01/20 17:04:50;;;;;;;19.35;8.45;;;;;;;;;;10396643;28;20214;-79
2023/01/20 17:09:51;;;;;;;14.57;7.78;;;;;;;;;;10432566;28;20310;-81
2023/01/20 17:14:52;;;;;;;10.98;6.65;;;;;;;;;;10422314;28;20281;-79
2023/01/20 17:19:53;;;;;;;14.95;8.35;;;;;;;;;;10408943;28;20569;-77
2023/01/20 17:24:55;;;;;;;12.48;7.78;;;;;;;;;;10428807;28;22094;-79
2023/01/20 17:29:56;;;;;;;12.60;7.43;;;;;;;;;;10436286;28;20279;-80
2023/01/20 17:34:57;;;;;;;14.45;7.82;;;;;;;;;;10427891;28;20217;-78
2023/01/20 17:39:59;;;;;;;14.38;7.60;;;;;;;;;;10424524;28;20211;-79
2023/01/20 17:45:02;;;;;;;14.32;6.88;;;;;;;;;;10425918;28;20807;-79
2023/01/20 17:50:03;;;;;;;13.27;8.35;;;;;;;;;;10404603;28;20211;-81
2023/01/20 17:55:05;;;;;;;18.10;8.35;;;;;;;;;;10424946;28;20323;-79
2023/01/20 18:00:06;;;;;;;23.15;9.48;;;;;;;;;;10413672;28;20179;-79
2023/01/20 18:05:08;;;;;;;19.92;9.10;;;;;;;;;;10430709;28;20332;-80
2023/01/20 18:10:09;;;;;;;21.25;10.07;;;;;;;;;;10429918;28;20183;-80
2023/01/20 18:15:10;;;;;;;21.92;10.73;;;;;;;;;;10411648;28;20351;-80
2023/01/20 18:20:13;;;;;;;25.70;10.73;;;;;;;;;;10424818;28;20244;-80
2023/01/20 18:25:14;;;;;;;28.00;11.82;;;;;;;;;;10422130;28;20214;-79
2023/01/20 18:30:16;;;;;;;27.17;11.47;;;;;;;;;;10424609;28;20201;-78
2023/01/20 18:35:17;;;;;;;24.57;10.87;;;;;;;;;;10420070;28;20214;-80
2023/01/20 18:40:19;;;;;;;40.40;12.68;;;;;;;;;;10420932;28;20873;-80
2023/01/20 18:45:20;;;;;;;25.70;11.23;;;;;;;;;;10421709;28;20995;-80
2023/01/20 18:50:21;;;;;;;25.37;11.37;;;;;;;;;;10428766;28;20194;-80
2023/01/20 18:55:22;;;;;;;29.17;12.47;;;;;;;;;;10426408;28;20598;-80
2023/01/20 19:00:25;;;;;;;30.17;12.67;;;;;;;;;;10420264;28;20323;-78
2023/01/20 19:05:26;;;;;;;26.23;12.47;;;;;;;;;;10396868;28;20215;-79
2023/01/20 19:10:27;;;;;;;32.83;13.20;;;;;;;;;;10417256;28;20219;-79
2023/01/20 19:15:28;;;;;;;27.67;12.23;;;;;;;;;;10404729;28;20222;-79
2023/01/20 19:20:29;;;;;;;23.10;12.60;;;;;;;;;;10413238;28;20210;-78
2023/01/20 19:25:30;;;;;;;26.90;12.57;;;;;;;;;;10409674;28;20219;-76
2023/01/20 19:30:31;;;;;;;25.70;12.23;;;;;;;;;;10412432;28;20223;-79
2023/01/20 19:35:33;;;;;;;26.17;11.03;;;;;;;;;;10413009;28;20231;-78
2023/01/20 19:40:34;;;;;;;25.20;11.10;;;;;;;;;;10414614;28;20234;-79
2023/01/20 19:45:36;;;;;;;19.00;9.53;;;;;;;;;;10411179;28;20221;-78
2023/01/20 19:50:37;;;;;;;22.23;11.00;;;;;;;;;;10420121;28;20963;-78
2023/01/20 19:55:39;;;;;;;25.80;10.93;;;;;;;;;;10421733;28;20253;-79
2023/01/20 20:00:41;;;;;;;20.83;10.20;;;;;;;;;;10420249;28;20302;-79
2023/01/20 20:05:42;;;;;;;23.93;10.03;;;;;;;;;;10402418;28;22073;-78
2023/01/20 20:10:43;;;;;;;25.00;10.60;;;;;;;;;;10416225;28;20570;-78
2023/01/20 20:15:45;;;;;;;26.88;11.10;;;;;;;;;;10418942;28;20939;-79
2023/01/20 20:20:46;;;;;;;26.58;11.60;;;;;;;;;;10421327;28;20253;-80
2023/01/20 20:25:52;;;;;;;23.03;10.40;;;;;;;;;;10397907;28;20357;-78
2023/01/20 20:30:54;;;;;;;24.63;11.85;;;;;;;;;;10417777;28;20231;-78
2023/01/20 20:35:55;;;;;;;25.03;11.27;;;;;;;;;;10417528;28;20219;-79
2023/01/20 20:41:00;;;;;;;26.30;11.40;;;;;;;;;;10409090;28;20203;-80
2023/01/20 20:46:02;;;;;;;24.33;11.07;;;;;;;;;;10426441;28;20315;-75
2023/01/20 20:51:04;;;;;;;24.45;11.95;;;;;;;;;;10427128;28;20700;-77
2023/01/20 20:56:10;;;;;;;25.65;12.20;;;;;;;;;;10410724;28;20222;-81
2023/01/20 21:01:13;;;;;;;24.23;10.80;;;;;;;;;;10420567;28;20341;-79
2023/01/20 21:06:15;;;;;;;24.48;11.48;;;;;;;;;;10427167;28;20906;-76
2023/01/20 21:11:18;;;;;;;29.67;12.17;;;;;;;;;;10426226;28;20293;-78
2023/01/20 21:16:21;;;;;;;26.63;11.30;;;;;;;;;;10424620;28;20211;-79
2023/01/20 21:21:23;;;;;;;25.97;11.33;;;;;;;;;;10412607;28;20220;-77
2023/01/20 21:26:25;;;;;;;21.47;10.93;;;;;;;;;;10431779;28;20276;-77
2023/01/20 21:31:26;;;;;;;26.17;12.27;;;;;;;;;;10413433;28;20210;-76
2023/01/20 21:36:28;;;;;;;27.63;10.88;;;;;;;;;;10440072;28;20218;-78
2023/01/20 21:41:29;;;;;;;31.15;12.75;;;;;;;;;;10433690;28;20315;-74
2023/01/20 21:46:32;;;;;;;20.20;11.93;;;;;;;;;;10437334;28;20222;-78
2023/01/20 21:56:54;;;;;;;22.27;11.37;;;;;;;;;;10418722;28;20281;-77
2023/01/20 22:01:55;;;;;;;31.75;10.77;;;;;;;;;;10425467;28;20648;-77
2023/01/20 22:06:56;;;;;;;19.70;10.97;;;;;;;;;;10432539;28;20213;-76
2023/01/20 22:11:57;;;;;;;19.97;9.90;;;;;;;;;;10424240;28;20238;-75
2023/01/20 22:16:58;;;;;;;22.33;10.07;;;;;;;;;;10431885;28;20217;-77
2023/01/20 22:22:00;;;;;;;19.23;9.18;;;;;;;;;;10424916;28;20206;-77
2023/01/20 22:27:01;;;;;;;21.10;10.13;;;;;;;;;;10423586;28;20218;-74
2023/01/20 22:32:03;;;;;;;19.37;10.27;;;;;;;;;;10427577;28;20272;-76
2023/01/20 22:37:04;;;;;;;26.13;11.40;;;;;;;;;;10429679;28;20219;-74
2023/01/20 22:42:06;;;;;;;28.67;12.80;;;;;;;;;;10422997;28;20345;-78
2023/01/20 22:47:09;;;;;;;21.10;11.07;;;;;;;;;;10426696;28;20300;-75
2023/01/20 22:52:10;;;;;;;23.47;11.17;;;;;;;;;;10422370;28;20206;-74
2023/01/20 22:57:11;;;;;;;17.27;9.17;;;;;;;;;;10424573;28;20218;-76
2023/01/20 23:02:13;;;;;;;22.47;9.90;;;;;;;;;;10420627;28;20920;-76
2023/01/20 23:07:14;;;;;;;20.07;9.03;;;;;;;;;;10421514;28;20314;-73
2023/01/20 23:12:15;;;;;;;28.67;9.53;;;;;;;;;;10405689;28;20233;-75
2023/01/20 23:17:16;;;;;;;17.63;9.93;;;;;;;;;;10409359;28;20214;-75
2023/01/20 23:22:17;;;;;;;23.03;9.40;;;;;;;;;;10414371;28;20206;-75
2023/01/20 23:27:18;;;;;;;21.97;9.47;;;;;;;;;;10411456;28;20310;-79
2023/01/20 23:32:19;;;;;;;17.73;9.43;;;;;;;;;;10433330;28;20210;-77
2023/01/20 23:37:21;;;;;;;27.03;11.37;;;;;;;;;;10432006;28;20206;-77
2023/01/20 23:42:22;;;;;;;18.27;9.40;;;;;;;;;;10430608;28;20207;-76
2023/01/20 23:47:23;;;;;;;19.83;10.23;;;;;;;;;;10435906;28;20214;-76
2023/01/20 23:52:25;;;;;;;24.27;9.93;;;;;;;;;;10415155;28;20250;-75
2023/01/20 23:57:26;;;;;;;25.67;9.53;;;;;;;;;;10432955;28;20587;-74
